sensor_id;sensor_type;location;lat;lon;timestamp;pressure;altitude;pressure_sealevel;temperature;humidity
74542;BME280;63015;45.378;20.360;2023-11-21T00:00:59;62370.56;;;-146.38;100.00
74542;BME280;63015;45.378;20.360;2023-11-21T00:03:01;62370.56;;;-146.38;100.00
74542;BME280;63015;45.378;20.360;2023-11-21T00:05:02;62370.56;;;-146.38;100.00
74542;BME280;63015;45.378;20.360;2023-11-21T00:07:05;62370.56;;;-146.38;100.00
74542;BME280;63015;45.378;20.360;2023-11-21T00:09:06;62370.56;;;-146.38;100.00
74542;BME280;63015;45.378;20.360;2023-11-21T00:11:08;62370.56;;;-146.38;100.00
74542;BME280;63015;45.378;20.360;2023-11-21T00:13:09;62370.56;;;-146.38;100.00
74542;BME280;63015;45.378;20.360;2023-11-21T00:15:11;62370.56;;;-146.38;100.00
74542;BME280;63015;45.378;20.360;2023-11-21T00:17:11;62370.56;;;-146.38;100.00
74542;BME280;63015;45.378;20.360;2023-11-21T00:19:12;62370.56;;;-146.38;100.00
74542;BME280;63015;45.378;20.360;2023-11-21T00:21:13;62370.56;;;-146.38;100.00
74542;BME280;63015;45.378;20.360;2023-11-21T00:23:13;62370.56;;;-146.38;100.00
74542;BME280;63015;45.378;20.360;2023-11-21T00:25:14;62370.56;;;-146.38;100.00
74542;BME280;63015;45.378;20.360;2023-11-21T00:27:15;62370.56;;;-146.38;100.00
74542;BME280;63015;45.378;20.360;2023-11-21T00:29:16;62370.56;;;-146.38;100.00
74542;BME280;63015;45.378;20.360;2023-11-21T00:31:17;62370.56;;;-146.38;100.00
74542;BME280;63015;45.378;20.360;2023-11-21T00:33:19;62370.56;;;-146.38;100.00
74542;BME280;63015;45.378;20.360;2023-11-21T00:35:20;62370.56;;;-146.38;100.00
74542;BME280;63015;45.378;20.360;2023-11-21T00:37:22;62370.56;;;-146.38;100.00
74542;BME280;63015;45.378;20.360;2023-11-21T00:39:22;62370.56;;;-146.38;100.00
74542;BME280;63015;45.378;20.360;2023-11-21T00:41:23;62370.56;;;-146.38;100.00
74542;BME280;63015;45.378;20.360;2023-11-21T00:43:23;62370.56;;;-146.38;100.00
74542;BME280;63015;45.378;20.360;2023-11-21T00:45:24;62370.56;;;-146.38;100.00
74542;BME280;63015;45.378;20.360;2023-11-21T00:47:25;62370.56;;;-146.38;100.00
74542;BME280;63015;45.378;20.360;2023-11-21T00:49:25;62370.56;;;-146.38;100.00
74542;BME280;63015;45.378;20.360;2023-11-21T00:51:26;62370.56;;;-146.38;100.00
74542;BME280;63015;45.378;20.360;2023-11-21T00:53:27;62370.56;;;-146.38;100.00
74542;BME280;63015;45.378;20.360;2023-11-21T00:55:28;62370.56;;;-146.38;100.00
74542;BME280;63015;45.378;20.360;2023-11-21T00:57:30;62370.56;;;-146.38;100.00
74542;BME280;63015;45.378;20.360;2023-11-21T00:59:30;62370.56;;;-146.38;100.00
74542;BME280;63015;45.378;20.360;2023-11-21T01:01:31;62370.56;;;-146.38;100.00
74542;BME280;63015;45.378;20.360;2023-11-21T01:03:32;62370.56;;;-146.38;100.00
74542;BME280;63015;45.378;20.360;2023-11-21T01:05:32;62370.56;;;-146.38;100.00
74542;BME280;63015;45.378;20.360;2023-11-21T01:07:33;62370.56;;;-146.38;100.00
74542;BME280;63015;45.378;20.360;2023-11-21T01:09:33;62370.56;;;-146.38;100.00
74542;BME280;63015;45.378;20.360;2023-11-21T01:11:34;62370.56;;;-146.38;100.00
74542;BME280;63015;45.378;20.360;2023-11-21T01:13:37;62370.56;;;-146.38;100.00
74542;BME280;63015;45.378;20.360;2023-11-21T01:15:38;62370.56;;;-146.38;100.00
74542;BME280;63015;45.378;20.360;2023-11-21T01:17:39;62370.56;;;-146.38;100.00
74542;BME280;63015;45.378;20.360;2023-11-21T01:19:39;62370.56;;;-146.38;100.00
74542;BME280;63015;45.378;20.360;2023-11-21T01:21:40;62370.56;;;-146.38;100.00
74542;BME280;63015;45.378;20.360;2023-11-21T01:23:41;62370.56;;;-146.38;100.00
74542;BME280;63015;45.378;20.360;2023-11-21T01:25:41;62370.56;;;-146.38;100.00
74542;BME280;63015;45.378;20.360;2023-11-21T01:27:44;62370.56;;;-146.38;100.00
74542;BME280;63015;45.378;20.360;2023-11-21T01:29:44;62370.56;;;-146.38;100.00
74542;BME280;63015;45.378;20.360;2023-11-21T01:31:45;62370.56;;;-146.38;100.00
74542;BME280;63015;45.378;20.360;2023-11-21T01:33:46;62370.56;;;-146.38;100.00
74542;BME280;63015;45.378;20.360;2023-11-21T01:35:46;62370.56;;;-146.38;100.00
74542;BME280;63015;45.378;20.360;2023-11-21T01:37:47;62370.56;;;-146.38;100.00
74542;BME280;63015;45.378;20.360;2023-11-21T01:39:48;62370.56;;;-146.38;100.00
74542;BME280;63015;45.378;20.360;2023-11-21T01:41:50;62370.56;;;-146.38;100.00
74542;BME280;63015;45.378;20.360;2023-11-21T01:43:52;62370.56;;;-146.38;100.00
74542;BME280;63015;45.378;20.360;2023-11-21T01:45:54;62370.56;;;-146.38;100.00
74542;BME280;63015;45.378;20.360;2023-11-21T01:47:57;62370.56;;;-146.38;100.00
74542;BME280;63015;45.378;20.360;2023-11-21T01:50:02;62370.56;;;-146.38;100.00
74542;BME280;63015;45.378;20.360;2023-11-21T01:52:05;62370.56;;;-146.38;100.00
74542;BME280;63015;45.378;20.360;2023-11-21T01:54:06;62370.56;;;-146.38;100.00
74542;BME280;63015;45.378;20.360;2023-11-21T01:56:08;62370.56;;;-146.38;100.00
74542;BME280;63015;45.378;20.360;2023-11-21T01:58:11;62370.56;;;-146.38;100.00
74542;BME280;63015;45.378;20.360;2023-11-21T02:00:13;62370.56;;;-146.38;100.00
74542;BME280;63015;45.378;20.360;2023-11-21T02:02:16;62370.56;;;-146.38;100.00
74542;BME280;63015;45.378;20.360;2023-11-21T02:04:18;62370.56;;;-146.38;100.00
74542;BME280;63015;45.378;20.360;2023-11-21T02:06:18;62370.56;;;-146.38;100.00
74542;BME280;63015;45.378;20.360;2023-11-21T02:08:20;62370.56;;;-146.38;100.00
74542;BME280;63015;45.378;20.360;2023-11-21T02:10:20;62370.56;;;-146.38;100.00
74542;BME280;63015;45.378;20.360;2023-11-21T02:12:23;62370.56;;;-146.38;100.00
74542;BME280;63015;45.378;20.360;2023-11-21T02:14:27;62370.56;;;-146.38;100.00
74542;BME280;63015;45.378;20.360;2023-11-21T02:16:28;62370.56;;;-146.38;100.00
74542;BME280;63015;45.378;20.360;2023-11-21T02:18:31;62370.56;;;-146.38;100.00
74542;BME280;63015;45.378;20.360;2023-11-21T02:20:32;62370.56;;;-146.38;100.00
74542;BME280;63015;45.378;20.360;2023-11-21T02:22:39;62370.56;;;-146.38;100.00
74542;BME280;63015;45.378;20.360;2023-11-21T02:24:41;62370.56;;;-146.38;100.00
74542;BME280;63015;45.378;20.360;2023-11-21T02:26:42;62370.56;;;-146.38;100.00
74542;BME280;63015;45.378;20.360;2023-11-21T02:28:43;62370.56;;;-146.38;100.00
74542;BME280;63015;45.378;20.360;2023-11-21T02:30:43;62370.56;;;-146.38;100.00
74542;BME280;63015;45.378;20.360;2023-11-21T02:32:44;62370.56;;;-146.38;100.00
74542;BME280;63015;45.378;20.360;2023-11-21T02:34:45;62370.56;;;-146.38;100.00
74542;BME280;63015;45.378;20.360;2023-11-21T02:36:46;62370.56;;;-146.38;100.00
74542;BME280;63015;45.378;20.360;2023-11-21T02:38:47;62370.56;;;-146.38;100.00
74542;BME280;63015;45.378;20.360;2023-11-21T02:40:48;62370.56;;;-146.38;100.00
74542;BME280;63015;45.378;20.360;2023-11-21T02:42:50;62370.56;;;-146.38;100.00
74542;BME280;63015;45.378;20.360;2023-11-21T02:44:53;62370.56;;;-146.38;100.00
74542;BME280;63015;45.378;20.360;2023-11-21T02:46:54;62370.56;;;-146.38;100.00
74542;BME280;63015;45.378;20.360;2023-11-21T02:48:55;62370.56;;;-146.38;100.00
74542;BME280;63015;45.378;20.360;2023-11-21T02:50:55;62370.56;;;-146.38;100.00
74542;BME280;63015;45.378;20.360;2023-11-21T02:52:56;62370.56;;;-146.38;100.00
74542;BME280;63015;45.378;20.360;2023-11-21T02:55:01;62370.56;;;-146.38;100.00
74542;BME280;63015;45.378;20.360;2023-11-21T02:57:02;62370.56;;;-146.38;100.00
74542;BME280;63015;45.378;20.360;2023-11-21T02:59:04;62370.56;;;-146.38;100.00
74542;BME280;63015;45.378;20.360;2023-11-21T03:01:05;62370.56;;;-146.38;100.00
74542;BME280;63015;45.378;20.360;2023-11-21T03:03:08;62370.56;;;-146.38;100.00
74542;BME280;63015;45.378;20.360;2023-11-21T03:05:09;62370.56;;;-146.38;100.00
74542;BME280;63015;45.378;20.360;2023-11-21T03:07:10;62370.56;;;-146.38;100.00
74542;BME280;63015;45.378;20.360;2023-11-21T03:09:11;62370.56;;;-146.38;100.00
74542;BME280;63015;45.378;20.360;2023-11-21T03:11:15;62370.56;;;-146.38;100.00
74542;BME280;63015;45.378;20.360;2023-11-21T03:13:15;62370.56;;;-146.38;100.00
74542;BME280;63015;45.378;20.360;2023-11-21T03:15:16;62370.56;;;-146.38;100.00
74542;BME280;63015;45.378;20.360;2023-11-21T03:17:17;62370.56;;;-146.38;100.00
74542;BME280;63015;45.378;20.360;2023-11-21T03:19:18;62370.56;;;-146.38;100.00
74542;BME280;63015;45.378;20.360;2023-11-21T03:21:19;62370.56;;;-146.38;100.00
74542;BME280;63015;45.378;20.360;2023-11-21T03:23:19;62370.56;;;-146.38;100.00
74542;BME280;63015;45.378;20.360;2023-11-21T03:25:20;62370.56;;;-146.38;100.00
74542;BME280;63015;45.378;20.360;2023-11-21T03:27:20;62370.56;;;-146.38;100.00
74542;BME280;63015;45.378;20.360;2023-11-21T03:29:21;62370.56;;;-146.38;100.00
74542;BME280;63015;45.378;20.360;2023-11-21T03:31:22;62370.56;;;-146.38;100.00
74542;BME280;63015;45.378;20.360;2023-11-21T03:33:24;62370.56;;;-146.38;100.00
74542;BME280;63015;45.378;20.360;2023-11-21T03:35:25;62370.56;;;-146.38;100.00
74542;BME280;63015;45.378;20.360;2023-11-21T03:37:26;62370.56;;;-146.38;100.00
74542;BME280;63015;45.378;20.360;2023-11-21T03:39:30;62370.56;;;-146.38;100.00
74542;BME280;63015;45.378;20.360;2023-11-21T03:41:30;62370.56;;;-146.38;100.00
74542;BME280;63015;45.378;20.360;2023-11-21T03:43:31;62370.56;;;-146.38;100.00
74542;BME280;63015;45.378;20.360;2023-11-21T03:45:32;62370.56;;;-146.38;100.00
74542;BME280;63015;45.378;20.360;2023-11-21T03:47:32;62370.56;;;-146.38;100.00
74542;BME280;63015;45.378;20.360;2023-11-21T03:49:33;62370.56;;;-146.38;100.00
74542;BME280;63015;45.378;20.360;2023-11-21T03:51:33;62370.56;;;-146.38;100.00
74542;BME280;63015;45.378;20.360;2023-11-21T03:53:35;62370.56;;;-146.38;100.00
74542;BME280;63015;45.378;20.360;2023-11-21T03:55:36;62370.56;;;-146.38;100.00
74542;BME280;63015;45.378;20.360;2023-11-21T03:57:38;62370.56;;;-146.38;100.00
74542;BME280;63015;45.378;20.360;2023-11-21T03:59:42;62370.56;;;-146.38;100.00
74542;BME280;63015;45.378;20.360;2023-11-21T04:01:43;62370.56;;;-146.38;100.00
74542;BME280;63015;45.378;20.360;2023-11-21T04:03:43;62370.56;;;-146.38;100.00
74542;BME280;63015;45.378;20.360;2023-11-21T04:05:44;62370.56;;;-146.38;100.00
74542;BME280;63015;45.378;20.360;2023-11-21T04:07:46;62370.56;;;-146.38;100.00
74542;BME280;63015;45.378;20.360;2023-11-21T04:09:46;62370.56;;;-146.38;100.00
74542;BME280;63015;45.378;20.360;2023-11-21T04:11:47;62370.56;;;-146.38;100.00
74542;BME280;63015;45.378;20.360;2023-11-21T04:13:48;62370.56;;;-146.38;100.00
74542;BME280;63015;45.378;20.360;2023-11-21T04:15:48;62370.56;;;-146.38;100.00
74542;BME280;63015;45.378;20.360;2023-11-21T04:17:49;62370.56;;;-146.38;100.00
74542;BME280;63015;45.378;20.360;2023-11-21T04:19:50;62370.56;;;-146.38;100.00
74542;BME280;63015;45.378;20.360;2023-11-21T04:21:50;62370.56;;;-146.38;100.00
74542;BME280;63015;45.378;20.360;2023-11-21T04:23:51;62370.56;;;-146.38;100.00
74542;BME280;63015;45.378;20.360;2023-11-21T04:25:51;62370.56;;;-146.38;100.00
74542;BME280;63015;45.378;20.360;2023-11-21T04:27:54;62370.56;;;-146.38;100.00
74542;BME280;63015;45.378;20.360;2023-11-21T04:29:55;62370.56;;;-146.38;100.00
74542;BME280;63015;45.378;20.360;2023-11-21T04:31:55;62370.56;;;-146.38;100.00
74542;BME280;63015;45.378;20.360;2023-11-21T04:33:56;62370.56;;;-146.38;100.00
74542;BME280;63015;45.378;20.360;2023-11-21T04:35:56;62370.56;;;-146.38;100.00
74542;BME280;63015;45.378;20.360;2023-11-21T04:37:57;62370.56;;;-146.38;100.00
74542;BME280;63015;45.378;20.360;2023-11-21T04:39:58;62370.56;;;-146.38;100.00
74542;BME280;63015;45.378;20.360;2023-11-21T04:41:58;62370.56;;;-146.38;100.00
74542;BME280;63015;45.378;20.360;2023-11-21T04:43:59;62370.56;;;-146.38;100.00
74542;BME280;63015;45.378;20.360;2023-11-21T04:46:01;62370.56;;;-146.38;100.00
74542;BME280;63015;45.378;20.360;2023-11-21T04:48:02;62370.56;;;-146.38;100.00
74542;BME280;63015;45.378;20.360;2023-11-21T04:50:04;62370.56;;;-146.38;100.00
74542;BME280;63015;45.378;20.360;2023-11-21T04:52:06;62370.56;;;-146.38;100.00
74542;BME280;63015;45.378;20.360;2023-11-21T04:54:07;62370.56;;;-146.38;100.00
74542;BME280;63015;45.378;20.360;2023-11-21T04:56:08;62370.56;;;-146.38;100.00
74542;BME280;63015;45.378;20.360;2023-11-21T04:58:08;62370.56;;;-146.38;100.00
74542;BME280;63015;45.378;20.360;2023-11-21T05:00:10;62370.56;;;-146.38;100.00
74542;BME280;63015;45.378;20.360;2023-11-21T05:02:10;62370.56;;;-146.38;100.00
74542;BME280;63015;45.378;20.360;2023-11-21T05:04:12;62370.56;;;-146.38;100.00
74542;BME280;63015;45.378;20.360;2023-11-21T05:06:15;62370.56;;;-146.38;100.00
74542;BME280;63015;45.378;20.360;2023-11-21T05:08:15;62370.56;;;-146.38;100.00
74542;BME280;63015;45.378;20.360;2023-11-21T05:10:16;62370.56;;;-146.38;100.00
74542;BME280;63015;45.378;20.360;2023-11-21T05:12:16;62370.56;;;-146.38;100.00
74542;BME280;63015;45.378;20.360;2023-11-21T05:14:17;62370.56;;;-146.38;100.00
74542;BME280;63015;45.378;20.360;2023-11-21T05:16:19;62370.56;;;-146.38;100.00
74542;BME280;63015;45.378;20.360;2023-11-21T05:18:20;62370.56;;;-146.38;100.00
74542;BME280;63015;45.378;20.360;2023-11-21T05:20:21;62370.56;;;-146.38;100.00
74542;BME280;63015;45.378;20.360;2023-11-21T05:22:21;62370.56;;;-146.38;100.00
74542;BME280;63015;45.378;20.360;2023-11-21T05:24:22;62370.56;;;-146.38;100.00
74542;BME280;63015;45.378;20.360;2023-11-21T05:26:23;62370.56;;;-146.38;100.00
74542;BME280;63015;45.378;20.360;2023-11-21T05:28:23;62370.56;;;-146.38;100.00
74542;BME280;63015;45.378;20.360;2023-11-21T05:30:24;62370.56;;;-146.38;100.00
74542;BME280;63015;45.378;20.360;2023-11-21T05:32:25;62370.56;;;-146.38;100.00
74542;BME280;63015;45.378;20.360;2023-11-21T05:34:25;62370.56;;;-146.38;100.00
74542;BME280;63015;45.378;20.360;2023-11-21T05:36:26;62370.56;;;-146.38;100.00
74542;BME280;63015;45.378;20.360;2023-11-21T05:38:27;62370.56;;;-146.38;100.00
74542;BME280;63015;45.378;20.360;2023-11-21T05:40:27;62370.56;;;-146.38;100.00
74542;BME280;63015;45.378;20.360;2023-11-21T05:42:30;62370.56;;;-146.38;100.00
74542;BME280;63015;45.378;20.360;2023-11-21T05:44:31;62370.56;;;-146.38;100.00
74542;BME280;63015;45.378;20.360;2023-11-21T05:46:31;62370.56;;;-146.38;100.00
74542;BME280;63015;45.378;20.360;2023-11-21T05:48:35;62370.56;;;-146.38;100.00
74542;BME280;63015;45.378;20.360;2023-11-21T05:50:37;62370.56;;;-146.38;100.00
74542;BME280;63015;45.378;20.360;2023-11-21T05:52:38;62370.56;;;-146.38;100.00
74542;BME280;63015;45.378;20.360;2023-11-21T05:54:42;62370.56;;;-146.38;100.00
74542;BME280;63015;45.378;20.360;2023-11-21T05:56:42;62370.56;;;-146.38;100.00
74542;BME280;63015;45.378;20.360;2023-11-21T05:58:43;62370.56;;;-146.38;100.00
74542;BME280;63015;45.378;20.360;2023-11-21T06:00:44;62370.56;;;-146.38;100.00
74542;BME280;63015;45.378;20.360;2023-11-21T06:02:44;62370.56;;;-146.38;100.00
74542;BME280;63015;45.378;20.360;2023-11-21T06:04:45;62370.56;;;-146.38;100.00
74542;BME280;63015;45.378;20.360;2023-11-21T06:06:46;62370.56;;;-146.38;100.00
74542;BME280;63015;45.378;20.360;2023-11-21T06:08:46;62370.56;;;-146.38;100.00
74542;BME280;63015;45.378;20.360;2023-11-21T06:10:47;62370.56;;;-146.38;100.00
74542;BME280;63015;45.378;20.360;2023-11-21T06:12:49;62370.56;;;-146.38;100.00
74542;BME280;63015;45.378;20.360;2023-11-21T06:14:50;62370.56;;;-146.38;100.00
74542;BME280;63015;45.378;20.360;2023-11-21T06:16:51;62370.56;;;-146.38;100.00
74542;BME280;63015;45.378;20.360;2023-11-21T06:18:52;62370.56;;;-146.38;100.00
74542;BME280;63015;45.378;20.360;2023-11-21T06:20:53;62370.56;;;-146.38;100.00
74542;BME280;63015;45.378;20.360;2023-11-21T06:22:54;62370.56;;;-146.38;100.00
74542;BME280;63015;45.378;20.360;2023-11-21T06:24:55;62370.56;;;-146.38;100.00
74542;BME280;63015;45.378;20.360;2023-11-21T06:26:55;62370.56;;;-146.38;100.00
74542;BME280;63015;45.378;20.360;2023-11-21T06:28:56;62370.56;;;-146.38;100.00
74542;BME280;63015;45.378;20.360;2023-11-21T06:30:57;62370.56;;;-146.38;100.00
74542;BME280;63015;45.378;20.360;2023-11-21T06:33:05;62370.56;;;-146.38;100.00
74542;BME280;63015;45.378;20.360;2023-11-21T06:35:07;62370.56;;;-146.38;100.00
74542;BME280;63015;45.378;20.360;2023-11-21T06:37:08;62370.56;;;-146.38;100.00
74542;BME280;63015;45.378;20.360;2023-11-21T06:39:09;62370.56;;;-146.38;100.00
74542;BME280;63015;45.378;20.360;2023-11-21T06:41:09;62370.56;;;-146.38;100.00
74542;BME280;63015;45.378;20.360;2023-11-21T06:43:10;62370.56;;;-146.38;100.00
74542;BME280;63015;45.378;20.360;2023-11-21T06:45:10;62370.56;;;-146.38;100.00
74542;BME280;63015;45.378;20.360;2023-11-21T06:47:11;62370.56;;;-146.38;100.00
74542;BME280;63015;45.378;20.360;2023-11-21T06:49:12;62370.56;;;-146.38;100.00
74542;BME280;63015;45.378;20.360;2023-11-21T06:51:12;62370.56;;;-146.38;100.00
74542;BME280;63015;45.378;20.360;2023-11-21T06:53:13;62370.56;;;-146.38;100.00
74542;BME280;63015;45.378;20.360;2023-11-21T06:55:14;62370.56;;;-146.38;100.00
74542;BME280;63015;45.378;20.360;2023-11-21T06:57:15;62370.56;;;-146.38;100.00
74542;BME280;63015;45.378;20.360;2023-11-21T06:59:16;62370.56;;;-146.38;100.00
74542;BME280;63015;45.378;20.360;2023-11-21T07:01:16;62370.56;;;-146.38;100.00
74542;BME280;63015;45.378;20.360;2023-11-21T07:03:17;62370.56;;;-146.38;100.00
74542;BME280;63015;45.378;20.360;2023-11-21T07:05:20;62370.56;;;-146.38;100.00
74542;BME280;63015;45.378;20.360;2023-11-21T07:07:21;62370.56;;;-146.38;100.00
74542;BME280;63015;45.378;20.360;2023-11-21T07:09:22;62370.56;;;-146.38;100.00
74542;BME280;63015;45.378;20.360;2023-11-21T07:11:22;62370.56;;;-146.38;100.00
74542;BME280;63015;45.378;20.360;2023-11-21T07:13:23;62370.56;;;-146.38;100.00
74542;BME280;63015;45.378;20.360;2023-11-21T07:15:24;62370.56;;;-146.38;100.00
74542;BME280;63015;45.378;20.360;2023-11-21T07:17:26;62370.56;;;-146.38;100.00
74542;BME280;63015;45.378;20.360;2023-11-21T07:19:26;62370.56;;;-146.38;100.00
74542;BME280;63015;45.378;20.360;2023-11-21T07:21:27;62370.56;;;-146.38;100.00
74542;BME280;63015;45.378;20.360;2023-11-21T07:23:28;62370.56;;;-146.38;100.00
74542;BME280;63015;45.378;20.360;2023-11-21T07:25:28;62370.56;;;-146.38;100.00
74542;BME280;63015;45.378;20.360;2023-11-21T07:27:29;62370.56;;;-146.38;100.00
74542;BME280;63015;45.378;20.360;2023-11-21T07:29:30;62370.56;;;-146.38;100.00
74542;BME280;63015;45.378;20.360;2023-11-21T07:31:31;62370.56;;;-146.38;100.00
74542;BME280;63015;45.378;20.360;2023-11-21T07:33:34;62370.56;;;-146.38;100.00
74542;BME280;63015;45.378;20.360;2023-11-21T07:35:35;62370.56;;;-146.38;100.00
74542;BME280;63015;45.378;20.360;2023-11-21T07:37:35;62370.56;;;-146.38;100.00
74542;BME280;63015;45.378;20.360;2023-11-21T07:39:38;62370.56;;;-146.38;100.00
74542;BME280;63015;45.378;20.360;2023-11-21T07:41:42;62370.56;;;-146.38;100.00
74542;BME280;63015;45.378;20.360;2023-11-21T07:43:48;62370.56;;;-146.38;100.00
74542;BME280;63015;45.378;20.360;2023-11-21T07:45:49;62370.56;;;-146.38;100.00
74542;BME280;63015;45.378;20.360;2023-11-21T07:47:49;62370.56;;;-146.38;100.00
74542;BME280;63015;45.378;20.360;2023-11-21T07:49:50;62370.56;;;-146.38;100.00
74542;BME280;63015;45.378;20.360;2023-11-21T07:51:51;62370.56;;;-146.38;100.00
74542;BME280;63015;45.378;20.360;2023-11-21T07:53:52;62370.56;;;-146.38;100.00
74542;BME280;63015;45.378;20.360;2023-11-21T07:55:53;62370.56;;;-146.38;100.00
74542;BME280;63015;45.378;20.360;2023-11-21T07:57:53;62370.56;;;-146.38;100.00
74542;BME280;63015;45.378;20.360;2023-11-21T07:59:54;62370.56;;;-146.38;100.00
74542;BME280;63015;45.378;20.360;2023-11-21T08:01:55;62370.56;;;-146.38;100.00
74542;BME280;63015;45.378;20.360;2023-11-21T08:03:56;62370.56;;;-146.38;100.00
74542;BME280;63015;45.378;20.360;2023-11-21T08:06:04;62370.56;;;-146.38;100.00
74542;BME280;63015;45.378;20.360;2023-11-21T08:08:06;62370.56;;;-146.38;100.00
74542;BME280;63015;45.378;20.360;2023-11-21T08:12:07;100181.56;;;9.29;65.18
74542;BME280;63015;45.378;20.360;2023-11-21T08:14:10;100179.81;;;9.31;65.10
74542;BME280;63015;45.378;20.360;2023-11-21T08:16:14;100187.63;;;9.26;64.95
74542;BME280;63015;45.378;20.360;2023-11-21T08:18:15;100176.34;;;9.41;64.38
74542;BME280;63015;45.378;20.360;2023-11-21T08:20:17;100172.88;;;9.47;64.56
74542;BME280;63015;45.378;20.360;2023-11-21T08:22:18;100177.19;;;9.62;64.20
74542;BME280;63015;45.378;20.360;2023-11-21T08:24:18;100171.16;;;9.53;64.29
74542;BME280;63015;45.378;20.360;2023-11-21T08:26:20;100173.75;;;9.36;64.28
74542;BME280;63015;45.378;20.360;2023-11-21T08:28:21;100174.59;;;9.62;65.13
74542;BME280;63015;45.378;20.360;2023-11-21T08:30:26;100175.47;;;9.71;64.46
74542;BME280;63015;45.378;20.360;2023-11-21T08:32:30;100167.63;;;9.84;63.48
74542;BME280;63015;45.378;20.360;2023-11-21T08:34:33;100163.34;;;9.53;64.19
74542;BME280;63015;45.378;20.360;2023-11-21T08:36:34;100157.25;;;9.53;64.67
74542;BME280;63015;45.378;20.360;2023-11-21T08:38:35;100147.69;;;9.66;64.38
74542;BME280;63015;45.378;20.360;2023-11-21T08:40:38;100155.47;;;9.89;64.18
74542;BME280;63015;45.378;20.360;2023-11-21T08:42:39;100148.53;;;9.91;64.36
74542;BME280;63015;45.378;20.360;2023-11-21T08:44:40;100152.81;;;10.11;63.40
74542;BME280;63015;45.378;20.360;2023-11-21T08:46:41;100158.84;;;10.20;63.17
74542;BME280;63015;45.378;20.360;2023-11-21T08:48:44;100159.69;;;10.27;63.23
74542;BME280;63015;45.378;20.360;2023-11-21T08:50:45;100157.09;;;10.21;63.64
74542;BME280;63015;45.378;20.360;2023-11-21T08:52:45;100154.50;;;10.24;63.24
74542;BME280;63015;45.378;20.360;2023-11-21T08:54:46;100147.53;;;10.35;62.77
74542;BME280;63015;45.378;20.360;2023-11-21T08:56:48;100156.19;;;10.41;63.13
74542;BME280;63015;45.378;20.360;2023-11-21T08:58:50;100149.22;;;10.47;63.33
74542;BME280;63015;45.378;20.360;2023-11-21T09:00:50;100145.75;;;10.45;63.30
74542;BME280;63015;45.378;20.360;2023-11-21T09:02:51;100148.38;;;10.44;63.10
74542;BME280;63015;45.378;20.360;2023-11-21T09:04:52;100151.81;;;10.44;63.04
74542;BME280;63015;45.378;20.360;2023-11-21T09:06:53;100143.13;;;10.47;63.33
74542;BME280;63015;45.378;20.360;2023-11-21T09:08:53;100144.84;;;10.49;63.30
74542;BME280;63015;45.378;20.360;2023-11-21T09:10:54;100147.38;;;10.65;62.36
74542;BME280;63015;45.378;20.360;2023-11-21T09:12:54;100136.13;;;10.63;62.57
74542;BME280;63015;45.378;20.360;2023-11-21T09:14:55;100129.22;;;10.52;62.84
74542;BME280;63015;45.378;20.360;2023-11-21T09:16:56;100126.56;;;10.62;62.04
74542;BME280;63015;45.378;20.360;2023-11-21T09:18:58;100123.16;;;10.50;62.31
74542;BME280;63015;45.378;20.360;2023-11-21T09:20:59;100109.25;;;10.50;62.73
74542;BME280;63015;45.378;20.360;2023-11-21T09:23:00;100115.34;;;10.46;62.50
74542;BME280;63015;45.378;20.360;2023-11-21T09:25:00;100117.06;;;10.51;62.97
74542;BME280;63015;45.378;20.360;2023-11-21T09:27:01;100116.09;;;10.65;62.73
74542;BME280;63015;45.378;20.360;2023-11-21T09:29:01;100120.50;;;10.61;62.83
74542;BME280;63015;45.378;20.360;2023-11-21T09:31:02;100115.22;;;10.67;62.84
74542;BME280;63015;45.378;20.360;2023-11-21T09:33:05;100115.25;;;10.64;62.70
74542;BME280;63015;45.378;20.360;2023-11-21T09:35:07;100122.13;;;10.79;63.01
74542;BME280;63015;45.378;20.360;2023-11-21T09:37:10;100122.72;;;11.12;62.60
74542;BME280;63015;45.378;20.360;2023-11-21T09:39:11;100119.22;;;11.16;61.17
74542;BME280;63015;45.378;20.360;2023-11-21T09:41:25;100124.69;;;10.87;61.54
74542;BME280;63015;45.378;20.360;2023-11-21T09:43:30;100121.22;;;10.83;61.60
74542;BME280;63015;45.378;20.360;2023-11-21T09:45:35;100120.13;;;11.12;61.20
74542;BME280;63015;45.378;20.360;2023-11-21T09:47:38;100114.75;;;11.29;60.71
74542;BME280;63015;45.378;20.360;2023-11-21T09:49:38;100118.28;;;11.25;60.97
74542;BME280;63015;45.378;20.360;2023-11-21T09:51:43;100108.78;;;11.19;60.13
74542;BME280;63015;45.378;20.360;2023-11-21T09:53:45;100098.56;;;10.90;61.78
74542;BME280;63015;45.378;20.360;2023-11-21T09:55:49;100102.84;;;10.99;62.10
74542;BME280;63015;45.378;20.360;2023-11-21T09:57:53;100097.56;;;11.08;61.65
74542;BME280;63015;45.378;20.360;2023-11-21T09:59:55;100096.97;;;10.72;62.69
74542;BME280;63015;45.378;20.360;2023-11-21T10:02:07;100098.44;;;11.10;61.90
74542;BME280;63015;45.378;20.360;2023-11-21T10:04:13;100095.53;;;11.41;61.51
74542;BME280;63015;45.378;20.360;2023-11-21T10:06:15;100091.09;;;11.49;61.18
74542;BME280;63015;45.378;20.360;2023-11-21T10:08:19;100088.44;;;11.56;61.33
74542;BME280;63015;45.378;20.360;2023-11-21T10:10:21;100083.06;;;11.68;60.96
74542;BME280;63015;45.378;20.360;2023-11-21T10:12:23;100086.59;;;11.67;60.48
74542;BME280;63015;45.378;20.360;2023-11-21T10:14:24;100084.47;;;11.16;60.82
74542;BME280;63015;45.378;20.360;2023-11-21T10:16:26;100072.81;;;11.51;61.36